createdAt,value
2023-03-16T00:02:01.272Z,60.66
2023-03-16T00:04:14.374Z,59.97
2023-03-16T00:06:27.310Z,59.65
2023-03-16T00:08:40.551Z,59.66
2023-03-16T00:10:55.371Z,59.83
2023-03-16T00:13:08.300Z,59.65
2023-03-16T00:15:21.241Z,60.25
2023-03-16T00:17:36.051Z,59.97
2023-03-16T00:19:51.236Z,60.20
2023-03-16T00:22:04.261Z,60.73
2023-03-16T00:24:19.438Z,60.63
2023-03-16T00:26:33.163Z,60.74
2023-03-16T00:28:46.372Z,61.05
2023-03-16T00:31:00.484Z,60.62
2023-03-16T00:33:13.427Z,60.93
2023-03-16T00:35:26.561Z,61.24
2023-03-16T00:37:40.684Z,61.50
2023-03-16T00:39:54.147Z,61.51
2023-03-16T00:42:07.104Z,61.42
2023-03-16T00:44:20.125Z,61.60
2023-03-16T00:46:33.089Z,61.87
2023-03-16T00:48:47.570Z,61.68
2023-03-16T00:51:00.886Z,62.23
2023-03-16T00:53:14.083Z,62.49
2023-03-16T00:55:28.428Z,62.31
2023-03-16T00:57:42.226Z,62.25
2023-03-16T00:59:55.530Z,62.43
2023-03-16T01:02:10.847Z,62.30
2023-03-16T01:04:24.305Z,62.49
2023-03-16T01:06:39.889Z,62.92
2023-03-16T01:08:54.014Z,63.38
2023-03-16T01:11:17.632Z,62.82
2023-03-16T01:13:30.523Z,63.12
2023-03-16T01:15:44.187Z,62.87
2023-03-16T01:17:58.294Z,62.62
2023-03-16T01:20:16.674Z,63.13
2023-03-16T01:22:30.405Z,63.19
2023-03-16T01:24:43.715Z,63.42
2023-03-16T01:26:57.591Z,63.17
2023-03-16T01:29:10.515Z,63.15
2023-03-16T01:31:24.068Z,62.96
2023-03-16T01:33:37.414Z,63.20
2023-03-16T01:36:00.755Z,63.22
2023-03-16T01:38:17.759Z,62.62
2023-03-16T01:40:32.595Z,63.36
2023-03-16T01:42:51.778Z,63.44
2023-03-16T01:47:39.232Z,63.68
2023-03-16T01:50:00.760Z,63.49
2023-03-16T01:52:22.433Z,63.43
2023-03-16T01:54:38.936Z,63.51
2023-03-16T01:56:59.227Z,63.59
2023-03-16T01:59:17.920Z,63.68
2023-03-16T02:01:32.606Z,63.77
2023-03-16T02:03:46.996Z,63.98
2023-03-16T02:06:09.914Z,64.16
2023-03-16T02:08:27.954Z,64.17
2023-03-16T02:10:43.862Z,64.16
2023-03-16T02:12:59.175Z,64.31
2023-03-16T02:15:16.336Z,64.57
2023-03-16T02:17:32.197Z,64.57
2023-03-16T02:19:57.076Z,64.66
2023-03-16T02:22:12.457Z,64.71
2023-03-16T02:24:25.629Z,64.87
2023-03-16T02:26:46.531Z,64.89
2023-03-16T02:29:20.869Z,64.86
2023-03-16T02:31:35.519Z,65.10
2023-03-16T02:33:50.992Z,64.97
2023-03-16T02:36:04.969Z,65.14
2023-03-16T02:38:17.915Z,65.47
2023-03-16T02:40:37.709Z,65.45
2023-03-16T02:42:57.496Z,65.62
2023-03-16T02:45:16.086Z,65.69
2023-03-16T02:47:37.472Z,65.81
2023-03-16T02:49:51.957Z,65.98
2023-03-16T02:52:05.695Z,66.08
2023-03-16T02:54:19.068Z,66.19
2023-03-16T02:56:32.167Z,66.23
2023-03-16T02:58:45.514Z,66.32
2023-03-16T03:01:02.625Z,66.43
2023-03-16T03:03:15.973Z,66.67
2023-03-16T03:05:29.055Z,66.73
2023-03-16T03:07:43.226Z,66.93
2023-03-16T03:09:56.314Z,67.01
2023-03-16T03:12:10.266Z,67.17
2023-03-16T03:14:23.494Z,67.22
2023-03-16T03:16:37.434Z,67.45
2023-03-16T03:18:50.974Z,67.62
2023-03-16T03:21:04.496Z,67.76
2023-03-16T03:23:18.406Z,67.87
2023-03-16T03:25:31.766Z,67.90
2023-03-16T03:27:45.618Z,68.01
2023-03-16T03:30:01.726Z,68.17
2023-03-16T03:32:16.117Z,68.26
2023-03-16T03:34:29.661Z,68.33
2023-03-16T03:36:44.513Z,68.37
2023-03-16T03:38:57.787Z,68.58
2023-03-16T03:41:11.365Z,68.63
2023-03-16T03:43:25.397Z,68.68
2023-03-16T03:45:38.684Z,68.60
2023-03-16T03:47:52.086Z,68.67
2023-03-16T03:50:06.457Z,68.87
2023-03-16T03:52:20.718Z,69.03
2023-03-16T03:54:45.568Z,69.04
2023-03-16T03:57:21.931Z,69.07
2023-03-16T03:59:45.124Z,69.26
2023-03-16T04:02:39.973Z,69.38
2023-03-16T04:05:21.105Z,69.54
2023-03-16T04:07:49.724Z,69.76
2023-03-16T04:10:17.896Z,69.84
2023-03-16T04:12:33.975Z,70.00
2023-03-16T04:15:06.484Z,70.13
2023-03-16T04:17:35.484Z,70.09
2023-03-16T04:20:08.823Z,70.23
2023-03-16T04:22:35.892Z,70.28
2023-03-16T04:24:58.763Z,70.20
2023-03-16T04:27:32.604Z,70.44
2023-03-16T04:30:10.594Z,70.50
2023-03-16T04:32:35.481Z,70.55
2023-03-16T04:35:15.035Z,70.61
2023-03-16T04:37:41.306Z,70.67
2023-03-16T04:40:11.337Z,70.71
2023-03-16T04:42:26.117Z,70.78
2023-03-16T04:44:45.417Z,70.90
2023-03-16T04:47:00.543Z,70.81
2023-03-16T04:49:20.515Z,70.88
2023-03-16T04:51:34.987Z,70.89
2023-03-16T04:53:53.786Z,71.04
2023-03-16T04:56:20.608Z,71.06
2023-03-16T04:58:36.159Z,70.99
2023-03-16T05:00:52.592Z,71.09
2023-03-16T05:03:15.685Z,71.11
2023-03-16T05:05:29.210Z,71.07
2023-03-16T05:07:42.723Z,71.16
2023-03-16T05:09:55.954Z,71.10
2023-03-16T05:12:09.475Z,71.11
2023-03-16T05:14:29.240Z,71.17
2023-03-16T05:16:54.655Z,71.23
2023-03-16T05:19:07.916Z,71.47
2023-03-16T05:21:23.985Z,71.73
2023-03-16T05:23:43.064Z,71.85
2023-03-16T05:25:57.643Z,72.05
2023-03-16T05:28:11.227Z,72.10
2023-03-16T05:30:32.555Z,72.15
2023-03-16T05:32:48.823Z,72.23
2023-03-16T05:35:06.676Z,72.35
2023-03-16T05:37:20.298Z,72.18
2023-03-16T05:39:33.927Z,72.26
2023-03-16T05:41:47.587Z,72.26
2023-03-16T05:44:10.321Z,72.44
2023-03-16T05:46:46.977Z,72.42
2023-03-16T05:49:00.213Z,72.56
2023-03-16T05:51:16.709Z,72.74
2023-03-16T05:53:32.891Z,72.86
2023-03-16T05:55:58.118Z,73.02
2023-03-16T05:58:11.489Z,73.11
2023-03-16T06:00:35.668Z,73.30
2023-03-16T06:03:04.473Z,73.50
2023-03-16T06:05:20.375Z,73.63
2023-03-16T06:07:35.014Z,73.63
2023-03-16T06:09:52.141Z,73.76
2023-03-16T06:12:08.542Z,73.94
2023-03-16T06:14:24.593Z,73.97
2023-03-16T06:16:44.248Z,73.95
2023-03-16T06:19:14.714Z,73.97
2023-03-16T06:21:42.807Z,73.97
2023-03-16T06:23:57.850Z,73.89
2023-03-16T06:26:13.951Z,73.88
2023-03-16T06:28:28.830Z,74.01
2023-03-16T06:31:00.552Z,74.11
2023-03-16T06:34:11.446Z,74.33
2023-03-16T06:36:59.287Z,74.47
2023-03-16T06:39:13.213Z,74.58
2023-03-16T06:41:28.370Z,74.57
2023-03-16T06:43:42.009Z,74.62
2023-03-16T06:45:55.659Z,74.68
2023-03-16T06:48:11.234Z,74.65
2023-03-16T06:50:24.863Z,74.87
2023-03-16T06:52:37.683Z,74.92
2023-03-16T06:54:50.935Z,75.06
2023-03-16T06:57:05.773Z,75.03
2023-03-16T06:59:19.493Z,75.33
2023-03-16T07:01:32.975Z,75.22
2023-03-16T07:03:47.477Z,75.20
2023-03-16T07:06:10.002Z,75.35
2023-03-16T07:08:23.132Z,75.26
2023-03-16T07:10:36.057Z,75.33
2023-03-16T07:12:56.780Z,75.44
2023-03-16T07:15:11.346Z,75.53
2023-03-16T07:17:24.856Z,75.56
2023-03-16T07:19:38.660Z,75.76
2023-03-16T07:21:52.800Z,75.64
2023-03-16T07:24:11.479Z,75.69
2023-03-16T07:26:37.977Z,75.75
2023-03-16T07:28:51.838Z,75.86
2023-03-16T07:31:17.909Z,75.90
2023-03-16T07:33:31.916Z,75.96
2023-03-16T07:35:45.118Z,75.91
2023-03-16T07:38:12.297Z,76.05
2023-03-16T07:40:27.248Z,76.19
2023-03-16T07:42:45.265Z,76.19
2023-03-16T07:45:13.556Z,76.23
2023-03-16T07:47:27.114Z,76.20
2023-03-16T07:49:42.595Z,76.19
2023-03-16T07:52:01.671Z,76.07
2023-03-16T07:54:40.428Z,76.03
2023-03-16T07:56:53.693Z,76.35
2023-03-16T07:59:20.777Z,76.45
2023-03-16T08:01:40.715Z,76.56
2023-03-16T08:03:54.716Z,76.58
2023-03-16T08:06:20.295Z,76.54
2023-03-16T08:08:33.935Z,76.58
2023-03-16T08:10:50.548Z,76.53
2023-03-16T08:13:11.755Z,76.59
2023-03-16T08:15:27.936Z,76.64
2023-03-16T08:17:45.598Z,76.74
2023-03-16T08:20:11.564Z,76.82
2023-03-16T08:22:25.528Z,76.89
2023-03-16T08:24:51.669Z,76.93
2023-03-16T08:27:05.847Z,77.00
2023-03-16T08:29:20.360Z,77.06
2023-03-16T08:31:36.232Z,77.09
2023-03-16T08:34:12.470Z,77.02
2023-03-16T08:36:29.672Z,77.11
2023-03-16T08:38:45.371Z,77.24
2023-03-16T08:41:01.980Z,77.27
2023-03-16T08:43:15.259Z,77.21
2023-03-16T08:45:29.083Z,77.30
2023-03-16T08:47:41.988Z,77.47
2023-03-16T08:49:55.024Z,77.43
2023-03-16T08:52:08.728Z,77.44
2023-03-16T08:54:21.896Z,77.48
2023-03-16T08:56:35.210Z,77.50
2023-03-16T08:58:50.533Z,77.46
2023-03-16T09:01:04.992Z,77.40
2023-03-16T09:03:17.847Z,77.62
2023-03-16T09:05:31.852Z,77.54
2023-03-16T09:07:45.822Z,77.55
2023-03-16T09:09:59.856Z,77.73
2023-03-16T09:12:15.096Z,77.68
2023-03-16T09:14:28.032Z,77.71
2023-03-16T09:16:41.629Z,77.71
2023-03-16T09:18:54.875Z,77.69
2023-03-16T09:21:11.565Z,77.70
2023-03-16T09:23:25.055Z,77.91
2023-03-16T09:25:38.549Z,77.93
2023-03-16T09:27:51.997Z,77.85
2023-03-16T09:30:06.195Z,77.78
2023-03-16T09:32:19.642Z,77.72
2023-03-16T09:34:33.500Z,77.65
2023-03-16T09:36:47.705Z,77.78
2023-03-16T09:39:00.913Z,77.64
2023-03-16T09:41:27.168Z,77.69
2023-03-16T09:43:58.512Z,77.93
2023-03-16T09:46:17.663Z,77.84
2023-03-16T09:48:34.069Z,77.95
2023-03-16T09:50:49.756Z,78.11
2023-03-16T09:53:12.101Z,78.12
2023-03-16T09:55:34.436Z,78.09
2023-03-16T09:57:50.026Z,78.28
2023-03-16T10:00:11.595Z,78.22
2023-03-16T10:02:44.352Z,78.17
2023-03-16T10:05:10.821Z,78.46
2023-03-16T10:07:34.557Z,78.79
2023-03-16T10:09:56.124Z,78.82
2023-03-16T10:12:11.778Z,78.73
2023-03-16T10:14:31.135Z,78.93
2023-03-16T10:16:51.674Z,78.91
2023-03-16T10:19:13.075Z,79.00
2023-03-16T10:21:29.896Z,78.98
2023-03-16T10:23:43.476Z,78.88
2023-03-16T10:25:57.625Z,78.87
2023-03-16T10:28:11.181Z,78.92
2023-03-16T10:30:31.165Z,78.95
2023-03-16T10:32:44.289Z,78.95
2023-03-16T10:35:02.320Z,78.96
2023-03-16T10:37:18.985Z,79.01
2023-03-16T10:39:44.128Z,79.00
2023-03-16T10:42:05.252Z,78.82
2023-03-16T10:44:20.114Z,78.75
2023-03-16T10:46:39.135Z,78.82
2023-03-16T10:49:02.539Z,78.79
2023-03-16T10:51:21.260Z,78.83
2023-03-16T10:53:38.613Z,78.91
2023-03-16T10:55:53.961Z,78.87
2023-03-16T10:58:07.291Z,78.87
2023-03-16T11:00:25.134Z,78.82
2023-03-16T11:02:40.477Z,78.70
2023-03-16T11:04:54.631Z,78.64
2023-03-16T11:07:11.130Z,78.80
2023-03-16T11:09:29.987Z,78.76
2023-03-16T11:11:49.918Z,78.99
2023-03-16T11:14:07.699Z,79.02
2023-03-16T11:16:29.169Z,78.89
2023-03-16T11:18:47.305Z,78.71
2023-03-16T11:21:01.785Z,78.67
2023-03-16T11:23:20.035Z,78.67
2023-03-16T11:25:37.965Z,78.82
2023-03-16T11:27:57.160Z,79.11
2023-03-16T11:30:17.800Z,79.69
2023-03-16T11:32:37.252Z,79.92
2023-03-16T11:34:51.307Z,80.07
2023-03-16T11:37:14.587Z,80.27
2023-03-16T11:39:41.643Z,80.41
2023-03-16T11:42:05.480Z,80.51
2023-03-16T11:44:26.616Z,80.44
2023-03-16T11:46:44.956Z,80.67
2023-03-16T11:49:29.727Z,80.83
2023-03-16T11:51:56.385Z,80.86
2023-03-16T11:54:21.300Z,81.09
2023-03-16T11:56:39.459Z,81.13
2023-03-16T11:59:20.379Z,80.86
2023-03-16T12:01:57.944Z,80.68
2023-03-16T12:04:38.241Z,80.53
2023-03-16T12:07:06.567Z,80.46
2023-03-16T12:09:48.485Z,80.32
2023-03-16T12:12:05.919Z,80.08
2023-03-16T12:14:27.846Z,80.06
2023-03-16T12:16:49.948Z,79.83
2023-03-16T12:19:06.586Z,80.01
2023-03-16T12:21:24.202Z,80.05
2023-03-16T12:23:41.604Z,80.16
2023-03-16T12:25:56.362Z,80.22
2023-03-16T12:28:15.266Z,80.18
2023-03-16T12:30:38.834Z,80.18
2023-03-16T12:32:58.750Z,80.39
2023-03-16T12:35:20.288Z,80.23
2023-03-16T12:37:44.869Z,80.24
2023-03-16T12:40:13.580Z,80.27
2023-03-16T12:42:43.733Z,80.22
2023-03-16T12:45:06.108Z,80.14
2023-03-16T12:47:30.221Z,80.18
2023-03-16T12:49:44.332Z,80.16
2023-03-16T12:52:05.964Z,80.24
2023-03-16T12:54:27.725Z,80.21
2023-03-16T12:56:48.771Z,80.19
2023-03-16T12:59:03.480Z,80.16
2023-03-16T13:01:18.211Z,80.22
2023-03-16T13:03:32.443Z,80.27
2023-03-16T13:05:54.434Z,80.31
2023-03-16T13:08:17.688Z,80.49
2023-03-16T13:10:32.475Z,80.43
2023-03-16T13:12:47.435Z,80.38
2023-03-16T13:15:01.367Z,80.51
2023-03-16T13:17:30.510Z,80.48
2023-03-16T13:19:46.290Z,80.51
2023-03-16T13:22:22.585Z,80.64
2023-03-16T13:24:43.076Z,80.77
2023-03-16T13:27:02.342Z,80.84
2023-03-16T13:29:28.284Z,80.83
2023-03-16T13:31:44.884Z,80.95
2023-03-16T13:34:01.251Z,80.94
2023-03-16T13:36:16.627Z,80.80
2023-03-16T13:38:32.078Z,80.96
2023-03-16T13:40:51.386Z,81.07
2023-03-16T13:43:05.371Z,81.11
2023-03-16T13:45:23.037Z,81.08
2023-03-16T13:47:36.507Z,81.16
2023-03-16T13:49:54.528Z,81.00
2023-03-16T13:52:09.588Z,80.97
2023-03-16T13:54:29.288Z,80.98
2023-03-16T13:56:42.717Z,81.04
2023-03-16T13:58:59.126Z,80.99
2023-03-16T14:01:23.557Z,81.12
2023-03-16T14:03:40.617Z,81.11
2023-03-16T14:05:54.931Z,81.14
2023-03-16T14:08:17.960Z,81.16
2023-03-16T14:10:35.423Z,81.25
2023-03-16T14:12:56.916Z,81.29
2023-03-16T14:15:09.050Z,81.34
2023-03-16T14:17:24.420Z,81.50
2023-03-16T14:19:43.581Z,81.59
2023-03-16T14:21:57.180Z,81.64
2023-03-16T14:24:21.859Z,81.69
2023-03-16T14:26:46.836Z,81.73
2023-03-16T14:29:09.840Z,81.82
2023-03-16T14:31:25.583Z,81.81
2023-03-16T14:33:42.501Z,81.75
2023-03-16T14:36:01.553Z,81.64
2023-03-16T14:38:37.360Z,81.80
2023-03-16T14:40:59.538Z,81.87
2023-03-16T14:43:13.950Z,82.06
2023-03-16T14:45:30.460Z,82.05
2023-03-16T14:47:46.543Z,81.93
2023-03-16T14:50:00.899Z,82.00
2023-03-16T14:52:23.590Z,82.01
2023-03-16T14:54:34.630Z,82.09
2023-03-16T14:56:51.791Z,82.04
2023-03-16T14:59:05.280Z,82.24
2023-03-16T15:01:22.218Z,82.34
2023-03-16T15:03:39.467Z,82.48
2023-03-16T15:05:54.228Z,82.57
2023-03-16T15:08:08.771Z,82.65
2023-03-16T15:10:29.154Z,82.66
2023-03-16T15:12:42.670Z,82.91
2023-03-16T15:15:12.384Z,82.82
2023-03-16T15:17:26.241Z,84.23
2023-03-16T15:19:40.108Z,84.99
2023-03-16T15:21:53.131Z,84.97
2023-03-16T15:24:06.524Z,85.40
2023-03-16T15:26:24.928Z,85.49
2023-03-16T15:28:38.784Z,86.42
2023-03-16T15:30:54.021Z,86.66
2023-03-16T15:33:07.522Z,86.50
2023-03-16T15:35:21.265Z,86.82
2023-03-16T15:37:35.814Z,87.28
2023-03-16T15:39:50.920Z,87.30
2023-03-16T15:42:04.521Z,87.23
2023-03-16T15:44:18.362Z,87.11
2023-03-16T15:46:31.450Z,87.08
2023-03-16T15:48:45.596Z,86.91
2023-03-16T15:51:02.007Z,86.72
2023-03-16T15:53:30.214Z,86.56
2023-03-16T15:55:46.149Z,86.08
2023-03-16T15:58:04.108Z,85.74
2023-03-16T16:00:33.135Z,85.59
2023-03-16T16:02:46.530Z,85.25
2023-03-16T16:04:59.478Z,85.12
2023-03-16T16:07:16.277Z,84.88
2023-03-16T16:09:29.918Z,84.60
2023-03-16T16:11:43.350Z,84.32
2023-03-16T16:13:58.010Z,84.13
2023-03-16T16:16:12.861Z,83.82
2023-03-16T16:18:42.311Z,83.55
2023-03-16T16:20:55.862Z,83.09
2023-03-16T16:23:15.440Z,83.08
2023-03-16T16:25:31.797Z,83.04
2023-03-16T16:27:45.039Z,82.48
2023-03-16T16:29:58.408Z,82.34
2023-03-16T16:32:27.964Z,82.33
2023-03-16T16:34:41.355Z,82.03
2023-03-16T16:36:54.512Z,81.84
2023-03-16T16:39:07.530Z,81.83
2023-03-16T16:41:29.684Z,81.49
2023-03-16T16:43:44.981Z,81.19
2023-03-16T16:45:58.695Z,80.84
2023-03-16T16:48:30.793Z,80.25
2023-03-16T16:50:43.696Z,80.28
2023-03-16T16:52:58.680Z,80.17
2023-03-16T16:55:12.357Z,79.50
2023-03-16T16:57:26.384Z,79.31
2023-03-16T16:59:40.798Z,79.23
2023-03-16T17:01:55.555Z,79.23
2023-03-16T17:04:15.356Z,79.12
2023-03-16T17:06:29.056Z,78.79
2023-03-16T17:08:41.876Z,78.67
2023-03-16T17:10:56.266Z,78.71
2023-03-16T17:13:10.375Z,78.63
2023-03-16T17:15:29.096Z,78.37
2023-03-16T17:17:42.535Z,76.89
2023-03-16T17:19:56.484Z,76.85
2023-03-16T17:22:20.767Z,76.02
2023-03-16T17:24:34.186Z,75.59
2023-03-16T17:26:49.369Z,75.87
2023-03-16T17:29:04.967Z,75.77
2023-03-16T17:31:22.630Z,75.99
2023-03-16T17:33:35.578Z,74.97
2023-03-16T17:35:48.427Z,75.17
2023-03-16T17:38:01.398Z,74.87
2023-03-16T17:40:22.316Z,74.78
2023-03-16T17:42:35.348Z,74.82
2023-03-16T17:44:50.673Z,74.83
2023-03-16T17:47:04.007Z,74.70
2023-03-16T17:49:21.137Z,74.39
2023-03-16T17:51:35.816Z,73.91
2023-03-16T17:53:49.624Z,73.27
2023-03-16T17:56:06.222Z,73.07
2023-03-16T17:58:29.047Z,72.86
2023-03-16T18:00:43.541Z,72.67
2023-03-16T18:03:00.029Z,72.42
2023-03-16T18:05:22.118Z,71.38
2023-03-16T18:07:35.037Z,70.44
2023-03-16T18:09:49.034Z,70.09
2023-03-16T18:12:02.370Z,69.77
2023-03-16T18:14:26.920Z,70.40
2023-03-16T18:16:40.538Z,69.17
2023-03-16T18:18:55.102Z,68.97
2023-03-16T18:21:09.989Z,68.86
2023-03-16T18:23:26.286Z,68.71
2023-03-16T18:25:41.396Z,68.80
2023-03-16T18:27:54.379Z,68.51
2023-03-16T18:30:07.882Z,68.47
2023-03-16T18:32:27.552Z,67.55
2023-03-16T18:34:40.558Z,67.56
2023-03-16T18:36:54.655Z,67.15
2023-03-16T18:39:09.819Z,66.14
2023-03-16T18:41:25.686Z,66.43
2023-03-16T18:43:39.179Z,64.90
2023-03-16T18:45:54.847Z,64.65
2023-03-16T18:48:08.623Z,65.09
2023-03-16T18:50:31.350Z,64.93
2023-03-16T18:52:42.421Z,64.63
2023-03-16T18:54:56.839Z,65.00
2023-03-16T18:57:19.816Z,65.09
2023-03-16T18:59:32.562Z,65.18
2023-03-16T19:01:48.382Z,62.83
2023-03-16T19:04:02.751Z,63.45
2023-03-16T19:06:23.001Z,63.10
2023-03-16T19:08:35.951Z,62.78
2023-03-16T19:10:52.760Z,62.42
2023-03-16T19:13:06.106Z,61.10
2023-03-16T19:15:26.137Z,62.14
2023-03-16T19:17:39.547Z,60.76
2023-03-16T19:19:52.654Z,61.96
2023-03-16T19:22:10.925Z,60.09
2023-03-16T19:24:30.096Z,59.65
2023-03-16T19:26:43.555Z,59.04
2023-03-16T19:28:56.764Z,59.80
2023-03-16T19:31:17.669Z,58.54
2023-03-16T19:33:32.278Z,59.62
2023-03-16T19:35:51.847Z,59.75
2023-03-16T19:38:05.576Z,58.88
2023-03-16T19:40:21.010Z,58.12
2023-03-16T19:42:37.477Z,56.85
2023-03-16T19:44:51.908Z,57.74
2023-03-16T19:47:05.869Z,57.89
2023-03-16T19:49:23.119Z,57.77
2023-03-16T19:51:36.680Z,57.36
2023-03-16T19:53:50.912Z,57.38
2023-03-16T19:56:04.939Z,58.13
2023-03-16T19:58:26.652Z,58.36
2023-03-16T20:00:39.993Z,58.53
2023-03-16T20:02:57.949Z,58.05
2023-03-16T20:05:19.271Z,58.10
2023-03-16T20:07:32.195Z,58.58
2023-03-16T20:09:45.119Z,57.95
2023-03-16T20:11:58.189Z,58.38
2023-03-16T20:14:17.949Z,58.31
2023-03-16T20:16:33.330Z,59.31
2023-03-16T20:18:46.755Z,59.54
2023-03-16T20:20:59.629Z,58.68
2023-03-16T20:23:22.308Z,58.72
2023-03-16T20:25:37.960Z,58.81
2023-03-16T20:27:58.498Z,58.92
2023-03-16T20:30:21.544Z,59.06
2023-03-16T20:32:40.932Z,58.61
2023-03-16T20:34:55.136Z,58.96
2023-03-16T20:37:12.387Z,59.19
2023-03-16T20:39:25.404Z,60.53
2023-03-16T20:41:39.949Z,60.48
2023-03-16T20:43:53.277Z,60.58
2023-03-16T20:46:06.981Z,61.12
2023-03-16T20:48:22.044Z,62.20
2023-03-16T20:50:35.812Z,62.61
2023-03-16T20:52:49.077Z,63.02
2023-03-16T20:55:02.630Z,61.52
2023-03-16T20:57:22.486Z,60.82
2023-03-16T20:59:36.060Z,60.85
2023-03-16T21:01:49.170Z,61.48
2023-03-16T21:04:01.974Z,61.18
2023-03-16T21:06:25.019Z,62.14
2023-03-16T21:08:37.925Z,61.60
2023-03-16T21:10:52.908Z,62.19
2023-03-16T21:13:06.336Z,62.43
2023-03-16T21:15:28.623Z,61.40
2023-03-16T21:17:43.966Z,61.10
2023-03-16T21:19:57.688Z,60.96
2023-03-16T21:22:22.051Z,61.29
2023-03-16T21:24:35.525Z,62.51
2023-03-16T21:26:49.305Z,62.58
2023-03-16T21:29:05.377Z,62.49
2023-03-16T21:31:22.033Z,62.51
2023-03-16T21:33:38.328Z,62.06
2023-03-16T21:35:51.194Z,62.30
2023-03-16T21:38:05.317Z,63.11
2023-03-16T21:40:25.028Z,63.40
2023-03-16T21:42:38.187Z,62.87
2023-03-16T21:44:51.871Z,63.12
2023-03-16T21:47:05.018Z,64.17
2023-03-16T21:49:19.145Z,64.38
2023-03-16T21:51:34.707Z,64.34
2023-03-16T21:53:49.007Z,63.96
2023-03-16T21:56:02.726Z,63.40
2023-03-16T21:58:18.363Z,63.63
2023-03-16T22:00:34.535Z,63.43
2023-03-16T22:02:47.503Z,63.09
2023-03-16T22:05:01.954Z,63.32
2023-03-16T22:07:18.818Z,62.96
2023-03-16T22:09:34.041Z,63.12
2023-03-16T22:11:47.665Z,63.40
2023-03-16T22:14:02.592Z,63.52
2023-03-16T22:16:21.175Z,62.71
2023-03-16T22:18:40.236Z,63.24
2023-03-16T22:20:53.944Z,63.65
2023-03-16T22:23:07.702Z,63.26
2023-03-16T22:25:23.295Z,63.17
2023-03-16T22:27:36.314Z,62.87
2023-03-16T22:29:51.170Z,63.01
2023-03-16T22:32:06.765Z,62.31
2023-03-16T22:34:28.677Z,62.92
2023-03-16T22:36:41.804Z,62.99
2023-03-16T22:38:58.837Z,62.73
2023-03-16T22:41:15.788Z,63.13
2023-03-16T22:43:38.468Z,63.12
2023-03-16T22:45:51.676Z,63.11
2023-03-16T22:48:06.036Z,63.08
2023-03-16T22:50:25.489Z,63.29
2023-03-16T22:52:40.837Z,62.60
2023-03-16T22:54:53.787Z,61.95
2023-03-16T22:57:06.901Z,61.77
2023-03-16T22:59:24.390Z,61.93
2023-03-16T23:01:42.260Z,62.23
2023-03-16T23:03:56.229Z,62.32
2023-03-16T23:06:10.140Z,62.86
2023-03-16T23:08:25.165Z,62.06
2023-03-16T23:10:38.341Z,62.24
2023-03-16T23:12:52.464Z,61.26
2023-03-16T23:15:06.602Z,61.35
2023-03-16T23:17:23.277Z,61.62
2023-03-16T23:19:38.710Z,61.65
2023-03-16T23:21:52.131Z,61.28
2023-03-16T23:24:05.575Z,61.35
2023-03-16T23:26:29.243Z,61.44
2023-03-16T23:28:42.911Z,60.89
2023-03-16T23:30:56.645Z,60.76
2023-03-16T23:33:11.007Z,60.59
2023-03-16T23:35:27.031Z,61.05
2023-03-16T23:37:40.259Z,61.08
2023-03-16T23:39:53.671Z,60.91
2023-03-16T23:42:07.430Z,59.98
2023-03-16T23:44:24.657Z,59.51
2023-03-16T23:46:37.936Z,59.80
2023-03-16T23:48:52.601Z,59.14
2023-03-16T23:51:06.661Z,58.60
2023-03-16T23:53:22.751Z,58.67
2023-03-16T23:55:35.710Z,59.15
2023-03-16T23:57:52.354Z,59.43
